sensor_id;sensor_type;location;lat;lon;timestamp;temperature;humidity
64226;DHT22;50545;56.064;26.178;2022-09-17T00:01:19;10.30;99.90
64226;DHT22;50545;56.064;26.178;2022-09-17T00:03:51;10.30;99.90
64226;DHT22;50545;56.064;26.178;2022-09-17T00:06:19;10.30;99.90
64226;DHT22;50545;56.064;26.178;2022-09-17T00:08:48;10.30;99.90
64226;DHT22;50545;56.064;26.178;2022-09-17T00:11:21;10.30;99.90
64226;DHT22;50545;56.064;26.178;2022-09-17T00:13:50;10.30;99.90
64226;DHT22;50545;56.064;26.178;2022-09-17T00:16:27;10.40;99.90
64226;DHT22;50545;56.064;26.178;2022-09-17T00:18:54;10.30;99.90
64226;DHT22;50545;56.064;26.178;2022-09-17T00:21:22;10.30;99.90
64226;DHT22;50545;56.064;26.178;2022-09-17T00:24:01;10.40;99.90
64226;DHT22;50545;56.064;26.178;2022-09-17T00:26:30;10.40;99.90
64226;DHT22;50545;56.064;26.178;2022-09-17T00:28:58;10.40;99.90
64226;DHT22;50545;56.064;26.178;2022-09-17T00:31:26;10.40;99.90
64226;DHT22;50545;56.064;26.178;2022-09-17T00:33:54;10.40;99.90
64226;DHT22;50545;56.064;26.178;2022-09-17T00:36:22;10.40;99.90
64226;DHT22;50545;56.064;26.178;2022-09-17T00:38:55;10.40;99.90
64226;DHT22;50545;56.064;26.178;2022-09-17T00:41:25;10.40;99.90
64226;DHT22;50545;56.064;26.178;2022-09-17T00:43:58;10.30;99.90
64226;DHT22;50545;56.064;26.178;2022-09-17T00:46:36;10.40;99.90
64226;DHT22;50545;56.064;26.178;2022-09-17T00:49:21;10.30;99.90
64226;DHT22;50545;56.064;26.178;2022-09-17T00:51:58;10.30;99.90
64226;DHT22;50545;56.064;26.178;2022-09-17T00:54:27;10.30;99.90
64226;DHT22;50545;56.064;26.178;2022-09-17T00:56:55;10.30;99.90
64226;DHT22;50545;56.064;26.178;2022-09-17T00:59:24;10.30;99.90
64226;DHT22;50545;56.064;26.178;2022-09-17T01:01:52;10.30;99.90
64226;DHT22;50545;56.064;26.178;2022-09-17T01:04:24;10.30;99.90
64226;DHT22;50545;56.064;26.178;2022-09-17T01:09:38;10.30;99.90
64226;DHT22;50545;56.064;26.178;2022-09-17T01:12:50;10.30;99.90
64226;DHT22;50545;56.064;26.178;2022-09-17T01:23:39;10.20;99.90
64226;DHT22;50545;56.064;26.178;2022-09-17T01:31:51;10.20;99.90
64226;DHT22;50545;56.064;26.178;2022-09-17T01:34:28;10.20;99.90
64226;DHT22;50545;56.064;26.178;2022-09-17T01:39:49;10.20;99.90
64226;DHT22;50545;56.064;26.178;2022-09-17T01:45:24;10.30;99.90
64226;DHT22;50545;56.064;26.178;2022-09-17T01:47:57;10.30;99.90
64226;DHT22;50545;56.064;26.178;2022-09-17T01:50:42;10.30;99.90
64226;DHT22;50545;56.064;26.178;2022-09-17T01:53:11;10.30;99.90
64226;DHT22;50545;56.064;26.178;2022-09-17T01:55:42;10.30;99.90
64226;DHT22;50545;56.064;26.178;2022-09-17T01:58:21;10.30;99.90
64226;DHT22;50545;56.064;26.178;2022-09-17T02:00:55;10.30;99.90
64226;DHT22;50545;56.064;26.178;2022-09-17T02:03:45;10.30;99.90
64226;DHT22;50545;56.064;26.178;2022-09-17T02:06:19;10.30;99.90
64226;DHT22;50545;56.064;26.178;2022-09-17T02:08:56;10.30;99.90
64226;DHT22;50545;56.064;26.178;2022-09-17T02:11:25;10.30;99.90
64226;DHT22;50545;56.064;26.178;2022-09-17T02:14:07;10.30;99.90
64226;DHT22;50545;56.064;26.178;2022-09-17T02:16:39;10.40;99.90
64226;DHT22;50545;56.064;26.178;2022-09-17T02:19:26;10.30;99.90
64226;DHT22;50545;56.064;26.178;2022-09-17T02:22:05;10.30;99.90
64226;DHT22;50545;56.064;26.178;2022-09-17T02:29:58;10.30;99.90
64226;DHT22;50545;56.064;26.178;2022-09-17T02:32:25;10.30;99.90
64226;DHT22;50545;56.064;26.178;2022-09-17T02:34:53;10.30;99.90
64226;DHT22;50545;56.064;26.178;2022-09-17T02:37:20;10.30;99.90
64226;DHT22;50545;56.064;26.178;2022-09-17T02:39:48;10.30;99.90
64226;DHT22;50545;56.064;26.178;2022-09-17T02:42:55;10.30;99.90
64226;DHT22;50545;56.064;26.178;2022-09-17T02:48:40;10.30;99.90
64226;DHT22;50545;56.064;26.178;2022-09-17T02:59:21;10.30;99.90
64226;DHT22;50545;56.064;26.178;2022-09-17T03:04:21;10.30;99.90
64226;DHT22;50545;56.064;26.178;2022-09-17T03:06:51;10.30;99.90
64226;DHT22;50545;56.064;26.178;2022-09-17T03:09:19;10.30;99.90
64226;DHT22;50545;56.064;26.178;2022-09-17T03:11:46;10.30;99.90
64226;DHT22;50545;56.064;26.178;2022-09-17T03:14:14;10.30;99.90
64226;DHT22;50545;56.064;26.178;2022-09-17T03:16:41;10.30;99.90
64226;DHT22;50545;56.064;26.178;2022-09-17T03:19:08;10.20;99.90
64226;DHT22;50545;56.064;26.178;2022-09-17T03:21:35;10.20;99.90
64226;DHT22;50545;56.064;26.178;2022-09-17T03:24:03;10.20;99.90
64226;DHT22;50545;56.064;26.178;2022-09-17T03:26:30;10.20;99.90
64226;DHT22;50545;56.064;26.178;2022-09-17T03:28:57;10.20;99.90
64226;DHT22;50545;56.064;26.178;2022-09-17T03:31:25;10.20;99.90
64226;DHT22;50545;56.064;26.178;2022-09-17T03:33:52;10.20;99.90
64226;DHT22;50545;56.064;26.178;2022-09-17T03:36:20;10.20;99.90
64226;DHT22;50545;56.064;26.178;2022-09-17T03:38:47;10.20;99.90
64226;DHT22;50545;56.064;26.178;2022-09-17T03:41:14;10.20;99.90
64226;DHT22;50545;56.064;26.178;2022-09-17T03:43:41;10.10;99.90
64226;DHT22;50545;56.064;26.178;2022-09-17T03:46:08;10.10;99.90
64226;DHT22;50545;56.064;26.178;2022-09-17T03:48:36;10.10;99.90
64226;DHT22;50545;56.064;26.178;2022-09-17T03:51:05;10.10;99.90
64226;DHT22;50545;56.064;26.178;2022-09-17T03:53:33;10.10;99.90
64226;DHT22;50545;56.064;26.178;2022-09-17T03:56:01;10.10;99.90
64226;DHT22;50545;56.064;26.178;2022-09-17T03:58:30;10.10;99.90
64226;DHT22;50545;56.064;26.178;2022-09-17T04:00:57;10.10;99.90
64226;DHT22;50545;56.064;26.178;2022-09-17T04:03:26;10.10;99.90
64226;DHT22;50545;56.064;26.178;2022-09-17T04:05:54;10.10;99.90
64226;DHT22;50545;56.064;26.178;2022-09-17T04:08:21;10.10;99.90
64226;DHT22;50545;56.064;26.178;2022-09-17T04:10:49;10.10;99.90
64226;DHT22;50545;56.064;26.178;2022-09-17T04:13:18;10.10;99.90
64226;DHT22;50545;56.064;26.178;2022-09-17T04:15:46;10.10;99.90
64226;DHT22;50545;56.064;26.178;2022-09-17T04:18:14;10.10;99.90
64226;DHT22;50545;56.064;26.178;2022-09-17T04:20:42;10.10;99.90
64226;DHT22;50545;56.064;26.178;2022-09-17T04:23:10;10.10;99.90
64226;DHT22;50545;56.064;26.178;2022-09-17T04:25:38;10.10;99.90
64226;DHT22;50545;56.064;26.178;2022-09-17T04:28:05;10.10;99.90
64226;DHT22;50545;56.064;26.178;2022-09-17T04:30:33;10.10;99.90
64226;DHT22;50545;56.064;26.178;2022-09-17T04:33:00;10.10;99.90
64226;DHT22;50545;56.064;26.178;2022-09-17T04:35:28;10.10;99.90
64226;DHT22;50545;56.064;26.178;2022-09-17T04:37:58;10.10;99.90
64226;DHT22;50545;56.064;26.178;2022-09-17T04:40:26;10.10;99.90
64226;DHT22;50545;56.064;26.178;2022-09-17T04:42:56;10.10;99.90
64226;DHT22;50545;56.064;26.178;2022-09-17T04:45:25;10.10;99.90
64226;DHT22;50545;56.064;26.178;2022-09-17T04:47:52;10.00;99.90
64226;DHT22;50545;56.064;26.178;2022-09-17T04:50:20;10.00;99.90
64226;DHT22;50545;56.064;26.178;2022-09-17T04:52:48;10.00;99.90
64226;DHT22;50545;56.064;26.178;2022-09-17T04:55:15;9.90;99.90
64226;DHT22;50545;56.064;26.178;2022-09-17T04:57:50;9.90;99.90
64226;DHT22;50545;56.064;26.178;2022-09-17T05:00:19;9.80;99.90
64226;DHT22;50545;56.064;26.178;2022-09-17T05:02:48;9.90;99.90
64226;DHT22;50545;56.064;26.178;2022-09-17T05:05:17;9.90;99.90
64226;DHT22;50545;56.064;26.178;2022-09-17T05:07:45;9.90;99.90
64226;DHT22;50545;56.064;26.178;2022-09-17T05:10:14;9.90;99.90
64226;DHT22;50545;56.064;26.178;2022-09-17T05:12:50;10.00;99.90
64226;DHT22;50545;56.064;26.178;2022-09-17T05:15:17;9.90;99.90
64226;DHT22;50545;56.064;26.178;2022-09-17T05:17:45;10.00;99.90
64226;DHT22;50545;56.064;26.178;2022-09-17T05:20:13;9.90;99.90
64226;DHT22;50545;56.064;26.178;2022-09-17T05:22:45;10.00;99.90
64226;DHT22;50545;56.064;26.178;2022-09-17T05:25:14;10.00;99.90
64226;DHT22;50545;56.064;26.178;2022-09-17T05:27:42;10.00;99.90
64226;DHT22;50545;56.064;26.178;2022-09-17T05:30:10;10.00;99.90
64226;DHT22;50545;56.064;26.178;2022-09-17T05:32:38;10.00;99.90
64226;DHT22;50545;56.064;26.178;2022-09-17T05:35:08;10.00;99.90
64226;DHT22;50545;56.064;26.178;2022-09-17T05:37:36;10.00;99.90
64226;DHT22;50545;56.064;26.178;2022-09-17T05:40:04;10.00;99.90
64226;DHT22;50545;56.064;26.178;2022-09-17T05:42:33;10.10;99.90
64226;DHT22;50545;56.064;26.178;2022-09-17T05:45:00;10.10;99.90
64226;DHT22;50545;56.064;26.178;2022-09-17T05:47:27;10.10;99.90
64226;DHT22;50545;56.064;26.178;2022-09-17T05:49:55;10.20;99.90
64226;DHT22;50545;56.064;26.178;2022-09-17T05:52:26;10.20;99.90
64226;DHT22;50545;56.064;26.178;2022-09-17T05:54:55;10.20;99.90
64226;DHT22;50545;56.064;26.178;2022-09-17T05:57:22;10.20;99.90
64226;DHT22;50545;56.064;26.178;2022-09-17T05:59:49;10.20;99.90
64226;DHT22;50545;56.064;26.178;2022-09-17T06:02:17;10.20;99.90
64226;DHT22;50545;56.064;26.178;2022-09-17T06:04:45;10.20;99.90
64226;DHT22;50545;56.064;26.178;2022-09-17T06:07:12;10.20;99.90
64226;DHT22;50545;56.064;26.178;2022-09-17T06:09:39;10.20;99.90
64226;DHT22;50545;56.064;26.178;2022-09-17T06:12:07;10.20;99.90
64226;DHT22;50545;56.064;26.178;2022-09-17T06:14:34;10.20;99.90
64226;DHT22;50545;56.064;26.178;2022-09-17T06:17:02;10.20;99.90
64226;DHT22;50545;56.064;26.178;2022-09-17T06:19:29;10.30;99.90
64226;DHT22;50545;56.064;26.178;2022-09-17T06:21:56;10.40;99.90
64226;DHT22;50545;56.064;26.178;2022-09-17T06:24:24;10.40;99.90
64226;DHT22;50545;56.064;26.178;2022-09-17T06:26:52;10.50;99.90
64226;DHT22;50545;56.064;26.178;2022-09-17T06:29:19;10.50;99.90
64226;DHT22;50545;56.064;26.178;2022-09-17T06:31:47;10.50;99.90
64226;DHT22;50545;56.064;26.178;2022-09-17T06:34:15;10.60;99.90
64226;DHT22;50545;56.064;26.178;2022-09-17T06:36:43;10.70;99.90
64226;DHT22;50545;56.064;26.178;2022-09-17T06:39:11;10.70;99.90
64226;DHT22;50545;56.064;26.178;2022-09-17T06:41:40;10.70;99.90
64226;DHT22;50545;56.064;26.178;2022-09-17T06:44:08;10.80;99.90
64226;DHT22;50545;56.064;26.178;2022-09-17T06:46:36;10.80;99.90
64226;DHT22;50545;56.064;26.178;2022-09-17T06:49:04;10.70;99.90
64226;DHT22;50545;56.064;26.178;2022-09-17T06:51:31;10.70;99.90
64226;DHT22;50545;56.064;26.178;2022-09-17T06:53:59;10.70;99.90
64226;DHT22;50545;56.064;26.178;2022-09-17T06:56:26;10.80;99.90
64226;DHT22;50545;56.064;26.178;2022-09-17T06:58:53;10.90;99.90
64226;DHT22;50545;56.064;26.178;2022-09-17T07:01:21;10.90;99.90
64226;DHT22;50545;56.064;26.178;2022-09-17T07:03:48;11.00;99.90
64226;DHT22;50545;56.064;26.178;2022-09-17T07:06:16;11.00;99.90
64226;DHT22;50545;56.064;26.178;2022-09-17T07:08:43;11.00;99.90
64226;DHT22;50545;56.064;26.178;2022-09-17T07:11:10;11.00;99.90
64226;DHT22;50545;56.064;26.178;2022-09-17T07:13:38;11.00;99.90
64226;DHT22;50545;56.064;26.178;2022-09-17T07:16:06;11.00;99.90
64226;DHT22;50545;56.064;26.178;2022-09-17T07:18:34;10.90;99.90
64226;DHT22;50545;56.064;26.178;2022-09-17T07:21:04;10.90;99.90
64226;DHT22;50545;56.064;26.178;2022-09-17T07:23:36;10.90;99.90
64226;DHT22;50545;56.064;26.178;2022-09-17T07:26:06;11.00;99.90
64226;DHT22;50545;56.064;26.178;2022-09-17T07:28:33;11.00;99.90
64226;DHT22;50545;56.064;26.178;2022-09-17T07:31:04;11.00;99.90
64226;DHT22;50545;56.064;26.178;2022-09-17T07:33:34;11.00;99.90
64226;DHT22;50545;56.064;26.178;2022-09-17T07:36:05;11.00;99.90
64226;DHT22;50545;56.064;26.178;2022-09-17T07:38:32;11.00;99.90
64226;DHT22;50545;56.064;26.178;2022-09-17T07:43:33;11.10;99.90
64226;DHT22;50545;56.064;26.178;2022-09-17T07:46:03;11.10;99.90
64226;DHT22;50545;56.064;26.178;2022-09-17T07:48:31;11.10;99.90
64226;DHT22;50545;56.064;26.178;2022-09-17T07:50:58;11.20;99.90
64226;DHT22;50545;56.064;26.178;2022-09-17T07:53:26;11.20;99.90
64226;DHT22;50545;56.064;26.178;2022-09-17T07:55:58;11.20;99.90
64226;DHT22;50545;56.064;26.178;2022-09-17T07:58:31;11.20;99.90
64226;DHT22;50545;56.064;26.178;2022-09-17T08:01:07;11.20;99.90
64226;DHT22;50545;56.064;26.178;2022-09-17T08:03:35;11.30;99.90
64226;DHT22;50545;56.064;26.178;2022-09-17T08:06:07;11.30;99.90
64226;DHT22;50545;56.064;26.178;2022-09-17T08:08:36;11.30;99.90
64226;DHT22;50545;56.064;26.178;2022-09-17T08:13:32;11.40;99.90
64226;DHT22;50545;56.064;26.178;2022-09-17T08:16:01;11.50;99.90
64226;DHT22;50545;56.064;26.178;2022-09-17T08:18:29;11.50;99.90
64226;DHT22;50545;56.064;26.178;2022-09-17T08:20:58;11.60;99.90
64226;DHT22;50545;56.064;26.178;2022-09-17T08:23:26;11.70;99.90
64226;DHT22;50545;56.064;26.178;2022-09-17T08:26:03;11.70;99.90
64226;DHT22;50545;56.064;26.178;2022-09-17T08:28:34;11.80;99.90
64226;DHT22;50545;56.064;26.178;2022-09-17T08:31:07;11.80;99.90
64226;DHT22;50545;56.064;26.178;2022-09-17T08:33:37;11.80;99.90
64226;DHT22;50545;56.064;26.178;2022-09-17T08:36:06;11.80;99.90
64226;DHT22;50545;56.064;26.178;2022-09-17T08:38:35;11.80;99.90
64226;DHT22;50545;56.064;26.178;2022-09-17T08:46:20;11.80;99.90
64226;DHT22;50545;56.064;26.178;2022-09-17T08:48:50;11.90;99.90
64226;DHT22;50545;56.064;26.178;2022-09-17T09:00:08;11.90;99.90
64226;DHT22;50545;56.064;26.178;2022-09-17T09:05:37;11.80;99.90
64226;DHT22;50545;56.064;26.178;2022-09-17T09:08:18;11.80;99.90
64226;DHT22;50545;56.064;26.178;2022-09-17T09:10:56;11.70;99.90
64226;DHT22;50545;56.064;26.178;2022-09-17T09:13:31;11.60;99.90
64226;DHT22;50545;56.064;26.178;2022-09-17T09:18:43;11.60;99.90
64226;DHT22;50545;56.064;26.178;2022-09-17T09:21:26;11.60;99.90
64226;DHT22;50545;56.064;26.178;2022-09-17T09:24:21;11.70;99.90
64226;DHT22;50545;56.064;26.178;2022-09-17T09:27:14;11.80;99.90
64226;DHT22;50545;56.064;26.178;2022-09-17T09:32:57;12.10;99.90
64226;DHT22;50545;56.064;26.178;2022-09-17T09:35:27;12.20;99.90
64226;DHT22;50545;56.064;26.178;2022-09-17T09:38:03;12.40;99.90
64226;DHT22;50545;56.064;26.178;2022-09-17T09:40:39;12.60;99.90
64226;DHT22;50545;56.064;26.178;2022-09-17T09:43:29;12.70;99.90
64226;DHT22;50545;56.064;26.178;2022-09-17T09:52:36;12.90;99.90
64226;DHT22;50545;56.064;26.178;2022-09-17T09:56:01;13.00;99.90
64226;DHT22;50545;56.064;26.178;2022-09-17T09:58:34;13.10;99.90
64226;DHT22;50545;56.064;26.178;2022-09-17T10:01:13;13.10;99.90
64226;DHT22;50545;56.064;26.178;2022-09-17T10:03:42;13.20;99.90
64226;DHT22;50545;56.064;26.178;2022-09-17T10:06:13;13.30;99.90
64226;DHT22;50545;56.064;26.178;2022-09-17T10:11:25;13.40;99.90
64226;DHT22;50545;56.064;26.178;2022-09-17T10:14:29;13.50;99.90
64226;DHT22;50545;56.064;26.178;2022-09-17T10:20:07;13.70;99.90
64226;DHT22;50545;56.064;26.178;2022-09-17T10:25:40;13.70;99.90
64226;DHT22;50545;56.064;26.178;2022-09-17T10:28:28;13.70;99.90
64226;DHT22;50545;56.064;26.178;2022-09-17T10:31:05;13.90;99.90
64226;DHT22;50545;56.064;26.178;2022-09-17T10:34:00;14.10;99.90
64226;DHT22;50545;56.064;26.178;2022-09-17T10:36:42;14.20;99.90
64226;DHT22;50545;56.064;26.178;2022-09-17T10:44:31;14.30;99.70
64226;DHT22;50545;56.064;26.178;2022-09-17T10:47:04;14.40;95.40
64226;DHT22;50545;56.064;26.178;2022-09-17T10:49:56;14.40;98.60
64226;DHT22;50545;56.064;26.178;2022-09-17T10:52:34;14.40;96.80
64226;DHT22;50545;56.064;26.178;2022-09-17T10:55:14;14.30;95.50
64226;DHT22;50545;56.064;26.178;2022-09-17T11:00:37;14.30;95.20
64226;DHT22;50545;56.064;26.178;2022-09-17T11:31:26;15.00;89.20
64226;DHT22;50545;56.064;26.178;2022-09-17T11:37:34;14.90;87.80
64226;DHT22;50545;56.064;26.178;2022-09-17T11:40:05;14.90;92.40
64226;DHT22;50545;56.064;26.178;2022-09-17T11:42:48;15.00;90.50
64226;DHT22;50545;56.064;26.178;2022-09-17T11:45:23;15.10;89.60
64226;DHT22;50545;56.064;26.178;2022-09-17T11:48:09;15.00;88.20
64226;DHT22;50545;56.064;26.178;2022-09-17T11:50:59;14.80;90.90
64226;DHT22;50545;56.064;26.178;2022-09-17T11:53:39;14.70;92.70
64226;DHT22;50545;56.064;26.178;2022-09-17T11:59:32;14.80;90.40
64226;DHT22;50545;56.064;26.178;2022-09-17T12:12:56;14.80;92.10
64226;DHT22;50545;56.064;26.178;2022-09-17T12:15:30;14.70;92.40
64226;DHT22;50545;56.064;26.178;2022-09-17T12:20:59;14.30;96.70
64226;DHT22;50545;56.064;26.178;2022-09-17T12:23:38;14.10;99.90
64226;DHT22;50545;56.064;26.178;2022-09-17T12:31:44;14.10;99.90
64226;DHT22;50545;56.064;26.178;2022-09-17T12:49:03;13.80;99.90
64226;DHT22;50545;56.064;26.178;2022-09-17T13:00:14;13.50;99.90
64226;DHT22;50545;56.064;26.178;2022-09-17T13:02:47;13.40;99.90
64226;DHT22;50545;56.064;26.178;2022-09-17T13:05:36;13.40;99.90
64226;DHT22;50545;56.064;26.178;2022-09-17T13:16:41;13.20;99.90
64226;DHT22;50545;56.064;26.178;2022-09-17T13:19:35;13.20;99.90
64226;DHT22;50545;56.064;26.178;2022-09-17T13:22:16;13.10;99.90
64226;DHT22;50545;56.064;26.178;2022-09-17T13:24:45;13.10;99.90
64226;DHT22;50545;56.064;26.178;2022-09-17T13:27:22;13.10;99.90
64226;DHT22;50545;56.064;26.178;2022-09-17T13:40:28;13.40;99.90
64226;DHT22;50545;56.064;26.178;2022-09-17T13:43:12;13.40;99.90
64226;DHT22;50545;56.064;26.178;2022-09-17T13:48:30;13.40;99.90
64226;DHT22;50545;56.064;26.178;2022-09-17T13:54:10;13.30;99.90
64226;DHT22;50545;56.064;26.178;2022-09-17T13:56:41;13.30;99.90
64226;DHT22;50545;56.064;26.178;2022-09-17T13:59:24;13.30;99.90
64226;DHT22;50545;56.064;26.178;2022-09-17T14:02:01;13.30;99.90
64226;DHT22;50545;56.064;26.178;2022-09-17T14:23:34;13.50;99.90
64226;DHT22;50545;56.064;26.178;2022-09-17T14:31:40;13.40;99.90
64226;DHT22;50545;56.064;26.178;2022-09-17T14:34:18;13.40;99.90
64226;DHT22;50545;56.064;26.178;2022-09-17T14:36:46;13.30;99.90
64226;DHT22;50545;56.064;26.178;2022-09-17T14:39:26;13.30;99.90
64226;DHT22;50545;56.064;26.178;2022-09-17T14:41:55;13.30;99.90
64226;DHT22;50545;56.064;26.178;2022-09-17T14:44:26;13.20;99.90
64226;DHT22;50545;56.064;26.178;2022-09-17T14:47:05;13.20;99.90
64226;DHT22;50545;56.064;26.178;2022-09-17T14:49:35;13.20;99.90
64226;DHT22;50545;56.064;26.178;2022-09-17T14:52:29;13.10;99.90
64226;DHT22;50545;56.064;26.178;2022-09-17T14:55:24;13.00;99.90
64226;DHT22;50545;56.064;26.178;2022-09-17T14:57:57;13.00;99.90
64226;DHT22;50545;56.064;26.178;2022-09-17T15:00:33;13.00;99.90
64226;DHT22;50545;56.064;26.178;2022-09-17T15:03:01;13.00;99.90
64226;DHT22;50545;56.064;26.178;2022-09-17T15:05:34;13.00;99.90
64226;DHT22;50545;56.064;26.178;2022-09-17T15:08:17;13.00;99.90
64226;DHT22;50545;56.064;26.178;2022-09-17T15:13:29;13.00;99.90
64226;DHT22;50545;56.064;26.178;2022-09-17T15:16:04;13.00;99.90
64226;DHT22;50545;56.064;26.178;2022-09-17T15:19:21;13.00;99.90
64226;DHT22;50545;56.064;26.178;2022-09-17T15:21:39;13.00;99.90
64226;DHT22;50545;56.064;26.178;2022-09-17T15:27:07;12.80;99.90
64226;DHT22;50545;56.064;26.178;2022-09-17T15:29:36;12.80;99.90
64226;DHT22;50545;56.064;26.178;2022-09-17T15:32:05;12.70;99.90
64226;DHT22;50545;56.064;26.178;2022-09-17T15:34:32;12.70;99.90
64226;DHT22;50545;56.064;26.178;2022-09-17T15:37:17;12.60;99.90
64226;DHT22;50545;56.064;26.178;2022-09-17T15:39:50;12.60;99.90
64226;DHT22;50545;56.064;26.178;2022-09-17T15:42:28;12.50;99.90
64226;DHT22;50545;56.064;26.178;2022-09-17T15:45:21;12.40;99.90
64226;DHT22;50545;56.064;26.178;2022-09-17T15:47:57;12.40;99.90
64226;DHT22;50545;56.064;26.178;2022-09-17T15:50:29;12.30;99.90
64226;DHT22;50545;56.064;26.178;2022-09-17T15:53:11;12.30;99.90
64226;DHT22;50545;56.064;26.178;2022-09-17T15:55:42;12.30;99.90
64226;DHT22;50545;56.064;26.178;2022-09-17T16:11:17;12.20;99.90
64226;DHT22;50545;56.064;26.178;2022-09-17T16:13:45;12.10;99.90
64226;DHT22;50545;56.064;26.178;2022-09-17T16:16:16;12.10;99.90
64226;DHT22;50545;56.064;26.178;2022-09-17T16:18:43;12.00;99.90
64226;DHT22;50545;56.064;26.178;2022-09-17T16:21:12;11.90;99.90
64226;DHT22;50545;56.064;26.178;2022-09-17T16:23:41;11.90;99.90
64226;DHT22;50545;56.064;26.178;2022-09-17T16:26:46;11.80;99.90
64226;DHT22;50545;56.064;26.178;2022-09-17T16:29:15;11.80;99.90
64226;DHT22;50545;56.064;26.178;2022-09-17T16:31:43;11.70;99.90
64226;DHT22;50545;56.064;26.178;2022-09-17T16:34:10;11.70;99.90
64226;DHT22;50545;56.064;26.178;2022-09-17T16:36:38;11.70;99.90
64226;DHT22;50545;56.064;26.178;2022-09-17T16:39:05;11.60;99.90
64226;DHT22;50545;56.064;26.178;2022-09-17T16:41:33;11.60;99.90
64226;DHT22;50545;56.064;26.178;2022-09-17T16:44:00;11.50;99.90
64226;DHT22;50545;56.064;26.178;2022-09-17T16:46:28;11.50;99.90
64226;DHT22;50545;56.064;26.178;2022-09-17T16:48:55;11.50;99.90
64226;DHT22;50545;56.064;26.178;2022-09-17T16:51:23;11.40;99.90
64226;DHT22;50545;56.064;26.178;2022-09-17T16:53:50;11.40;99.90
64226;DHT22;50545;56.064;26.178;2022-09-17T16:56:18;11.40;99.90
64226;DHT22;50545;56.064;26.178;2022-09-17T16:58:45;11.30;99.90
64226;DHT22;50545;56.064;26.178;2022-09-17T17:01:14;11.30;99.90
64226;DHT22;50545;56.064;26.178;2022-09-17T17:03:42;11.20;99.90
64226;DHT22;50545;56.064;26.178;2022-09-17T17:06:16;11.20;99.90
64226;DHT22;50545;56.064;26.178;2022-09-17T17:08:43;11.10;99.90
64226;DHT22;50545;56.064;26.178;2022-09-17T17:11:11;11.00;99.90
64226;DHT22;50545;56.064;26.178;2022-09-17T17:13:40;11.00;99.90
64226;DHT22;50545;56.064;26.178;2022-09-17T17:16:09;11.00;99.90
64226;DHT22;50545;56.064;26.178;2022-09-17T17:18:37;11.00;99.90
64226;DHT22;50545;56.064;26.178;2022-09-17T17:21:08;10.90;99.90
64226;DHT22;50545;56.064;26.178;2022-09-17T17:23:37;10.90;99.90
64226;DHT22;50545;56.064;26.178;2022-09-17T17:26:04;10.90;99.90
64226;DHT22;50545;56.064;26.178;2022-09-17T17:28:33;10.80;99.90
64226;DHT22;50545;56.064;26.178;2022-09-17T17:31:02;10.80;99.90
64226;DHT22;50545;56.064;26.178;2022-09-17T17:33:30;10.80;99.90
64226;DHT22;50545;56.064;26.178;2022-09-17T17:36:02;10.80;99.90
64226;DHT22;50545;56.064;26.178;2022-09-17T17:38:35;10.80;99.90
64226;DHT22;50545;56.064;26.178;2022-09-17T17:41:07;10.80;99.90
64226;DHT22;50545;56.064;26.178;2022-09-17T17:43:35;10.80;99.90
64226;DHT22;50545;56.064;26.178;2022-09-17T17:46:07;10.80;99.90
64226;DHT22;50545;56.064;26.178;2022-09-17T17:48:35;10.80;99.90
64226;DHT22;50545;56.064;26.178;2022-09-17T17:51:08;10.80;99.90
64226;DHT22;50545;56.064;26.178;2022-09-17T17:53:36;10.80;99.90
64226;DHT22;50545;56.064;26.178;2022-09-17T17:56:05;10.90;99.90
64226;DHT22;50545;56.064;26.178;2022-09-17T17:58:33;10.90;99.90
64226;DHT22;50545;56.064;26.178;2022-09-17T18:01:17;10.90;99.90
64226;DHT22;50545;56.064;26.178;2022-09-17T18:03:45;10.90;99.90
64226;DHT22;50545;56.064;26.178;2022-09-17T18:06:13;10.90;99.90
64226;DHT22;50545;56.064;26.178;2022-09-17T18:08:42;10.90;99.90
64226;DHT22;50545;56.064;26.178;2022-09-17T18:11:10;10.90;99.90
64226;DHT22;50545;56.064;26.178;2022-09-17T18:13:39;10.90;99.90
64226;DHT22;50545;56.064;26.178;2022-09-17T18:16:09;10.80;99.90
64226;DHT22;50545;56.064;26.178;2022-09-17T18:18:40;10.90;99.90
64226;DHT22;50545;56.064;26.178;2022-09-17T18:21:15;10.80;99.90
64226;DHT22;50545;56.064;26.178;2022-09-17T18:23:44;10.80;99.90
64226;DHT22;50545;56.064;26.178;2022-09-17T18:26:14;10.80;99.90
64226;DHT22;50545;56.064;26.178;2022-09-17T18:28:42;10.80;99.90
64226;DHT22;50545;56.064;26.178;2022-09-17T18:31:23;10.80;99.90
64226;DHT22;50545;56.064;26.178;2022-09-17T18:33:59;10.80;99.90
64226;DHT22;50545;56.064;26.178;2022-09-17T18:36:29;10.80;99.90
64226;DHT22;50545;56.064;26.178;2022-09-17T18:38:58;10.80;99.90
64226;DHT22;50545;56.064;26.178;2022-09-17T18:41:48;10.80;99.90
64226;DHT22;50545;56.064;26.178;2022-09-17T18:44:16;10.80;99.90
64226;DHT22;50545;56.064;26.178;2022-09-17T18:46:45;10.80;99.90
64226;DHT22;50545;56.064;26.178;2022-09-17T18:49:14;10.80;99.90
64226;DHT22;50545;56.064;26.178;2022-09-17T18:51:42;10.80;99.90
64226;DHT22;50545;56.064;26.178;2022-09-17T18:54:10;10.80;99.90
64226;DHT22;50545;56.064;26.178;2022-09-17T18:56:39;10.80;99.90
64226;DHT22;50545;56.064;26.178;2022-09-17T18:59:08;10.80;99.90
64226;DHT22;50545;56.064;26.178;2022-09-17T19:01:36;10.70;99.90
64226;DHT22;50545;56.064;26.178;2022-09-17T19:04:04;10.70;99.90
64226;DHT22;50545;56.064;26.178;2022-09-17T19:06:34;10.70;99.90
64226;DHT22;50545;56.064;26.178;2022-09-17T19:09:03;10.70;99.90
64226;DHT22;50545;56.064;26.178;2022-09-17T19:11:30;10.60;99.90
64226;DHT22;50545;56.064;26.178;2022-09-17T19:13:58;10.60;99.90
64226;DHT22;50545;56.064;26.178;2022-09-17T19:16:25;10.60;99.90
64226;DHT22;50545;56.064;26.178;2022-09-17T19:18:53;10.60;99.90
64226;DHT22;50545;56.064;26.178;2022-09-17T19:21:20;10.50;99.90
64226;DHT22;50545;56.064;26.178;2022-09-17T19:23:52;10.60;99.90
64226;DHT22;50545;56.064;26.178;2022-09-17T19:26:22;10.50;99.90
64226;DHT22;50545;56.064;26.178;2022-09-17T19:28:54;10.50;99.90
64226;DHT22;50545;56.064;26.178;2022-09-17T19:31:24;10.50;99.90
64226;DHT22;50545;56.064;26.178;2022-09-17T19:33:52;10.50;99.90
64226;DHT22;50545;56.064;26.178;2022-09-17T19:36:20;10.50;99.90
64226;DHT22;50545;56.064;26.178;2022-09-17T19:38:47;10.50;99.90
64226;DHT22;50545;56.064;26.178;2022-09-17T19:41:17;10.60;99.90
64226;DHT22;50545;56.064;26.178;2022-09-17T19:43:45;10.60;99.90
64226;DHT22;50545;56.064;26.178;2022-09-17T19:46:18;10.60;99.90